sensor_id;sensor_type;location;lat;lon;timestamp;temperature;humidity
20345;DHT22;10330;48.816;9.278;2023-02-15T00:00:19;1.90;99.90
20345;DHT22;10330;48.816;9.278;2023-02-15T00:02:45;1.90;99.90
20345;DHT22;10330;48.816;9.278;2023-02-15T00:05:11;1.90;99.90
20345;DHT22;10330;48.816;9.278;2023-02-15T00:07:37;1.90;99.90
20345;DHT22;10330;48.816;9.278;2023-02-15T00:10:04;1.80;99.90
20345;DHT22;10330;48.816;9.278;2023-02-15T00:12:31;1.80;99.90
20345;DHT22;10330;48.816;9.278;2023-02-15T00:14:57;1.80;99.90
20345;DHT22;10330;48.816;9.278;2023-02-15T00:17:23;1.80;99.90
20345;DHT22;10330;48.816;9.278;2023-02-15T00:19:50;1.80;99.90
20345;DHT22;10330;48.816;9.278;2023-02-15T00:22:25;1.80;99.90
20345;DHT22;10330;48.816;9.278;2023-02-15T00:42:17;1.60;99.90
20345;DHT22;10330;48.816;9.278;2023-02-15T01:05:21;1.30;99.90
20345;DHT22;10330;48.816;9.278;2023-02-15T01:21:48;1.20;99.90
20345;DHT22;10330;48.816;9.278;2023-02-15T01:24:15;1.20;99.90
20345;DHT22;10330;48.816;9.278;2023-02-15T01:30:39;1.10;99.90
20345;DHT22;10330;48.816;9.278;2023-02-15T01:37:07;1.10;99.90
20345;DHT22;10330;48.816;9.278;2023-02-15T01:51:31;1.00;99.90
20345;DHT22;10330;48.816;9.278;2023-02-15T01:54:25;1.00;99.90
20345;DHT22;10330;48.816;9.278;2023-02-15T02:51:10;0.90;99.90
20345;DHT22;10330;48.816;9.278;2023-02-15T02:54:16;0.90;99.90
20345;DHT22;10330;48.816;9.278;2023-02-15T03:04:49;0.80;99.90
20345;DHT22;10330;48.816;9.278;2023-02-15T03:08:07;0.80;99.90
20345;DHT22;10330;48.816;9.278;2023-02-15T03:11:09;0.80;99.90
20345;DHT22;10330;48.816;9.278;2023-02-15T03:37:32;0.30;99.90
20345;DHT22;10330;48.816;9.278;2023-02-15T03:48:00;0.10;99.90
20345;DHT22;10330;48.816;9.278;2023-02-15T03:51:02;0.10;99.90
20345;DHT22;10330;48.816;9.278;2023-02-15T04:01:19;0.20;99.90
20345;DHT22;10330;48.816;9.278;2023-02-15T04:20:45;0.20;99.90
20345;DHT22;10330;48.816;9.278;2023-02-15T04:49:39;-0.10;99.90
20345;DHT22;10330;48.816;9.278;2023-02-15T04:56:21;-0.30;99.90
20345;DHT22;10330;48.816;9.278;2023-02-15T04:59:00;-0.30;99.90
20345;DHT22;10330;48.816;9.278;2023-02-15T05:01:27;-0.30;99.90
20345;DHT22;10330;48.816;9.278;2023-02-15T05:04:10;-0.40;99.90
20345;DHT22;10330;48.816;9.278;2023-02-15T05:11:23;-0.50;99.90
20345;DHT22;10330;48.816;9.278;2023-02-15T05:14:00;-0.60;99.90
20345;DHT22;10330;48.816;9.278;2023-02-15T05:44:27;-0.60;99.90
20345;DHT22;10330;48.816;9.278;2023-02-15T05:47:39;-0.60;99.90
20345;DHT22;10330;48.816;9.278;2023-02-15T06:30:13;-0.80;99.90
20345;DHT22;10330;48.816;9.278;2023-02-15T06:57:53;-0.50;99.90
20345;DHT22;10330;48.816;9.278;2023-02-15T07:03:54;-0.60;99.90
20345;DHT22;10330;48.816;9.278;2023-02-15T07:07:12;-0.50;99.90
20345;DHT22;10330;48.816;9.278;2023-02-15T07:09:52;-0.30;99.90
20345;DHT22;10330;48.816;9.278;2023-02-15T07:13:41;-0.30;99.90
20345;DHT22;10330;48.816;9.278;2023-02-15T07:16:09;-0.30;99.90
20345;DHT22;10330;48.816;9.278;2023-02-15T07:18:36;-0.30;99.90
20345;DHT22;10330;48.816;9.278;2023-02-15T07:21:18;-0.30;99.90
20345;DHT22;10330;48.816;9.278;2023-02-15T07:24:06;-0.20;99.90
20345;DHT22;10330;48.816;9.278;2023-02-15T07:26:59;0.00;99.90
20345;DHT22;10330;48.816;9.278;2023-02-15T07:29:25;-0.20;99.90
20345;DHT22;10330;48.816;9.278;2023-02-15T07:31:52;-0.10;99.90
20345;DHT22;10330;48.816;9.278;2023-02-15T07:34:18;-0.20;99.90
20345;DHT22;10330;48.816;9.278;2023-02-15T07:36:44;-0.10;99.90
20345;DHT22;10330;48.816;9.278;2023-02-15T07:39:11;-0.10;99.90
20345;DHT22;10330;48.816;9.278;2023-02-15T07:41:37;0.00;99.90
20345;DHT22;10330;48.816;9.278;2023-02-15T07:44:12;0.00;99.90
20345;DHT22;10330;48.816;9.278;2023-02-15T07:46:39;-0.10;99.90
20345;DHT22;10330;48.816;9.278;2023-02-15T07:49:06;-0.10;99.90
20345;DHT22;10330;48.816;9.278;2023-02-15T07:51:34;-0.10;99.90
20345;DHT22;10330;48.816;9.278;2023-02-15T07:54:01;0.10;99.90
20345;DHT22;10330;48.816;9.278;2023-02-15T07:56:30;0.10;99.90
20345;DHT22;10330;48.816;9.278;2023-02-15T07:58:56;0.10;99.90
20345;DHT22;10330;48.816;9.278;2023-02-15T08:01:26;0.20;99.90
20345;DHT22;10330;48.816;9.278;2023-02-15T08:03:54;0.20;99.90
20345;DHT22;10330;48.816;9.278;2023-02-15T08:06:22;0.20;99.90
20345;DHT22;10330;48.816;9.278;2023-02-15T08:08:49;0.20;99.90
20345;DHT22;10330;48.816;9.278;2023-02-15T08:11:19;0.30;99.90
20345;DHT22;10330;48.816;9.278;2023-02-15T08:13:53;0.30;99.90
20345;DHT22;10330;48.816;9.278;2023-02-15T08:16:50;0.40;99.90
20345;DHT22;10330;48.816;9.278;2023-02-15T08:19:20;0.30;99.90
20345;DHT22;10330;48.816;9.278;2023-02-15T08:21:55;0.40;99.90
20345;DHT22;10330;48.816;9.278;2023-02-15T08:24:27;0.50;99.90
20345;DHT22;10330;48.816;9.278;2023-02-15T08:26:55;0.50;99.90
20345;DHT22;10330;48.816;9.278;2023-02-15T08:29:27;0.70;99.90
20345;DHT22;10330;48.816;9.278;2023-02-15T08:31:59;0.60;99.90
20345;DHT22;10330;48.816;9.278;2023-02-15T08:34:45;0.50;99.90
20345;DHT22;10330;48.816;9.278;2023-02-15T08:40:20;0.50;99.90
20345;DHT22;10330;48.816;9.278;2023-02-15T08:42:46;0.70;99.90
20345;DHT22;10330;48.816;9.278;2023-02-15T08:45:12;0.70;99.90
20345;DHT22;10330;48.816;9.278;2023-02-15T08:47:45;0.70;99.90
20345;DHT22;10330;48.816;9.278;2023-02-15T09:01:46;0.80;99.90
20345;DHT22;10330;48.816;9.278;2023-02-15T09:04:51;1.00;99.90
20345;DHT22;10330;48.816;9.278;2023-02-15T09:10:42;1.00;99.90
20345;DHT22;10330;48.816;9.278;2023-02-15T09:13:23;1.10;99.90
20345;DHT22;10330;48.816;9.278;2023-02-15T09:16:22;1.00;99.90
20345;DHT22;10330;48.816;9.278;2023-02-15T09:19:01;1.10;99.90
20345;DHT22;10330;48.816;9.278;2023-02-15T09:21:42;1.10;99.90
20345;DHT22;10330;48.816;9.278;2023-02-15T09:27:47;1.30;99.90
20345;DHT22;10330;48.816;9.278;2023-02-15T09:33:43;1.40;99.90
20345;DHT22;10330;48.816;9.278;2023-02-15T09:36:59;1.60;99.90
20345;DHT22;10330;48.816;9.278;2023-02-15T09:39:26;1.60;99.90
20345;DHT22;10330;48.816;9.278;2023-02-15T09:48:16;1.80;99.90
20345;DHT22;10330;48.816;9.278;2023-02-15T09:54:13;2.00;99.90
20345;DHT22;10330;48.816;9.278;2023-02-15T09:56:55;2.10;99.90
20345;DHT22;10330;48.816;9.278;2023-02-15T09:59:56;2.10;99.90
20345;DHT22;10330;48.816;9.278;2023-02-15T10:09:22;2.40;99.90
20345;DHT22;10330;48.816;9.278;2023-02-15T10:24:03;2.40;99.90
20345;DHT22;10330;48.816;9.278;2023-02-15T10:26:45;2.50;99.90
20345;DHT22;10330;48.816;9.278;2023-02-15T10:29:37;2.60;99.90
20345;DHT22;10330;48.816;9.278;2023-02-15T10:35:15;3.00;99.90
20345;DHT22;10330;48.816;9.278;2023-02-15T10:38:04;3.10;99.90
20345;DHT22;10330;48.816;9.278;2023-02-15T10:40:40;3.40;99.90
20345;DHT22;10330;48.816;9.278;2023-02-15T10:49:05;4.10;99.90
20345;DHT22;10330;48.816;9.278;2023-02-15T10:54:24;4.50;99.90
20345;DHT22;10330;48.816;9.278;2023-02-15T10:57:04;4.90;99.90
20345;DHT22;10330;48.816;9.278;2023-02-15T10:59:54;5.40;99.90
20345;DHT22;10330;48.816;9.278;2023-02-15T11:07:59;6.20;99.90
20345;DHT22;10330;48.816;9.278;2023-02-15T11:10:41;6.70;99.90
20345;DHT22;10330;48.816;9.278;2023-02-15T11:17:04;8.00;99.90
20345;DHT22;10330;48.816;9.278;2023-02-15T11:19:37;8.60;99.90
20345;DHT22;10330;48.816;9.278;2023-02-15T11:22:06;9.00;99.90
20345;DHT22;10330;48.816;9.278;2023-02-15T11:24:40;9.30;99.90
20345;DHT22;10330;48.816;9.278;2023-02-15T11:33:25;10.60;99.90
20345;DHT22;10330;48.816;9.278;2023-02-15T11:36:05;11.10;99.90
20345;DHT22;10330;48.816;9.278;2023-02-15T11:38:33;11.50;99.90
20345;DHT22;10330;48.816;9.278;2023-02-15T11:41:18;11.70;99.90
20345;DHT22;10330;48.816;9.278;2023-02-15T11:44:16;11.80;99.90
20345;DHT22;10330;48.816;9.278;2023-02-15T11:46:58;12.10;99.90
20345;DHT22;10330;48.816;9.278;2023-02-15T11:56:23;12.50;99.90
20345;DHT22;10330;48.816;9.278;2023-02-15T11:58:58;12.70;99.90
20345;DHT22;10330;48.816;9.278;2023-02-15T12:05:03;12.90;99.90
20345;DHT22;10330;48.816;9.278;2023-02-15T12:07:35;13.20;99.90
20345;DHT22;10330;48.816;9.278;2023-02-15T12:10:34;13.10;99.90
20345;DHT22;10330;48.816;9.278;2023-02-15T12:16:24;13.90;99.90
20345;DHT22;10330;48.816;9.278;2023-02-15T12:18:53;13.80;99.90
20345;DHT22;10330;48.816;9.278;2023-02-15T12:21:33;14.00;99.90
20345;DHT22;10330;48.816;9.278;2023-02-15T12:24:22;14.20;99.90
20345;DHT22;10330;48.816;9.278;2023-02-15T12:29:31;14.80;99.90
20345;DHT22;10330;48.816;9.278;2023-02-15T12:32:00;15.00;99.90
20345;DHT22;10330;48.816;9.278;2023-02-15T12:34:31;15.40;99.90
20345;DHT22;10330;48.816;9.278;2023-02-15T12:37:10;15.70;99.90
20345;DHT22;10330;48.816;9.278;2023-02-15T12:39:54;15.80;99.90
20345;DHT22;10330;48.816;9.278;2023-02-15T12:42:21;16.00;99.90
20345;DHT22;10330;48.816;9.278;2023-02-15T12:45:03;16.10;99.90
20345;DHT22;10330;48.816;9.278;2023-02-15T12:57:44;16.70;99.90
20345;DHT22;10330;48.816;9.278;2023-02-15T13:00:28;16.80;99.90
20345;DHT22;10330;48.816;9.278;2023-02-15T13:02:56;16.90;99.90
20345;DHT22;10330;48.816;9.278;2023-02-15T13:07:58;16.90;99.90
20345;DHT22;10330;48.816;9.278;2023-02-15T13:10:36;16.90;99.90
20345;DHT22;10330;48.816;9.278;2023-02-15T13:13:10;16.90;99.90
20345;DHT22;10330;48.816;9.278;2023-02-15T13:15:41;17.00;99.90
20345;DHT22;10330;48.816;9.278;2023-02-15T13:18:15;17.00;99.90
20345;DHT22;10330;48.816;9.278;2023-02-15T13:20:42;17.40;99.90
20345;DHT22;10330;48.816;9.278;2023-02-15T13:25:50;17.30;99.90
20345;DHT22;10330;48.816;9.278;2023-02-15T13:28:19;17.40;99.90
20345;DHT22;10330;48.816;9.278;2023-02-15T13:30:47;17.20;99.90
20345;DHT22;10330;48.816;9.278;2023-02-15T13:33:21;17.30;99.90
20345;DHT22;10330;48.816;9.278;2023-02-15T13:36:05;17.50;99.90
20345;DHT22;10330;48.816;9.278;2023-02-15T13:39:25;17.70;99.90
20345;DHT22;10330;48.816;9.278;2023-02-15T13:42:13;17.60;99.90
20345;DHT22;10330;48.816;9.278;2023-02-15T13:47:22;17.70;99.90
20345;DHT22;10330;48.816;9.278;2023-02-15T14:02:06;17.90;99.90
20345;DHT22;10330;48.816;9.278;2023-02-15T14:21:21;18.80;99.90
20345;DHT22;10330;48.816;9.278;2023-02-15T14:32:18;18.80;99.90
20345;DHT22;10330;48.816;9.278;2023-02-15T14:34:53;18.50;99.90
20345;DHT22;10330;48.816;9.278;2023-02-15T14:37:31;18.30;99.90
20345;DHT22;10330;48.816;9.278;2023-02-15T14:40:30;18.20;99.90
20345;DHT22;10330;48.816;9.278;2023-02-15T14:45:52;18.30;99.90
20345;DHT22;10330;48.816;9.278;2023-02-15T14:48:28;18.10;99.90
20345;DHT22;10330;48.816;9.278;2023-02-15T14:50:56;17.80;99.90
20345;DHT22;10330;48.816;9.278;2023-02-15T14:53:33;17.70;99.90
20345;DHT22;10330;48.816;9.278;2023-02-15T14:59:00;17.30;99.90
20345;DHT22;10330;48.816;9.278;2023-02-15T15:01:29;17.20;99.90
20345;DHT22;10330;48.816;9.278;2023-02-15T15:04:12;17.10;99.90
20345;DHT22;10330;48.816;9.278;2023-02-15T15:06:42;16.90;99.90
20345;DHT22;10330;48.816;9.278;2023-02-15T15:09:21;16.80;99.90
20345;DHT22;10330;48.816;9.278;2023-02-15T15:11:50;16.70;99.90
20345;DHT22;10330;48.816;9.278;2023-02-15T15:16:55;16.30;99.90
20345;DHT22;10330;48.816;9.278;2023-02-15T15:22:21;16.00;99.90
20345;DHT22;10330;48.816;9.278;2023-02-15T15:27:49;15.40;99.90
20345;DHT22;10330;48.816;9.278;2023-02-15T15:35:55;14.40;99.90
20345;DHT22;10330;48.816;9.278;2023-02-15T15:41:25;13.70;99.90
20345;DHT22;10330;48.816;9.278;2023-02-15T15:50:13;12.50;99.90
20345;DHT22;10330;48.816;9.278;2023-02-15T15:52:46;12.20;99.90
20345;DHT22;10330;48.816;9.278;2023-02-15T15:55:16;12.00;99.90
20345;DHT22;10330;48.816;9.278;2023-02-15T15:57:46;11.70;99.90
20345;DHT22;10330;48.816;9.278;2023-02-15T16:00:37;11.40;99.90
20345;DHT22;10330;48.816;9.278;2023-02-15T16:03:05;11.30;99.90
20345;DHT22;10330;48.816;9.278;2023-02-15T16:05:36;11.10;99.90
20345;DHT22;10330;48.816;9.278;2023-02-15T16:08:03;11.00;99.90
20345;DHT22;10330;48.816;9.278;2023-02-15T16:10:35;10.80;99.90
20345;DHT22;10330;48.816;9.278;2023-02-15T16:13:15;10.70;99.90
20345;DHT22;10330;48.816;9.278;2023-02-15T16:15:52;10.70;99.90
20345;DHT22;10330;48.816;9.278;2023-02-15T16:18:25;10.40;99.90
20345;DHT22;10330;48.816;9.278;2023-02-15T16:20:57;10.20;99.90
20345;DHT22;10330;48.816;9.278;2023-02-15T16:26:44;10.00;99.90
20345;DHT22;10330;48.816;9.278;2023-02-15T16:29:18;9.80;99.90
20345;DHT22;10330;48.816;9.278;2023-02-15T16:31:58;9.70;99.90
20345;DHT22;10330;48.816;9.278;2023-02-15T16:34:25;9.60;99.90
20345;DHT22;10330;48.816;9.278;2023-02-15T16:37:16;9.50;99.90
20345;DHT22;10330;48.816;9.278;2023-02-15T16:39:43;9.30;99.90
20345;DHT22;10330;48.816;9.278;2023-02-15T16:42:11;9.30;99.90
20345;DHT22;10330;48.816;9.278;2023-02-15T16:44:40;9.20;99.90
20345;DHT22;10330;48.816;9.278;2023-02-15T16:47:16;9.10;99.90
20345;DHT22;10330;48.816;9.278;2023-02-15T16:49:47;9.00;99.90
20345;DHT22;10330;48.816;9.278;2023-02-15T16:52:25;8.90;99.90
20345;DHT22;10330;48.816;9.278;2023-02-15T16:55:00;8.80;99.90
20345;DHT22;10330;48.816;9.278;2023-02-15T16:57:32;8.70;99.90
20345;DHT22;10330;48.816;9.278;2023-02-15T17:00:07;8.60;99.90
20345;DHT22;10330;48.816;9.278;2023-02-15T17:02:35;8.60;99.90
20345;DHT22;10330;48.816;9.278;2023-02-15T17:07:41;8.40;99.90
20345;DHT22;10330;48.816;9.278;2023-02-15T17:10:36;8.30;99.90
20345;DHT22;10330;48.816;9.278;2023-02-15T17:13:16;8.20;99.90
20345;DHT22;10330;48.816;9.278;2023-02-15T17:18:34;8.10;99.90
20345;DHT22;10330;48.816;9.278;2023-02-15T17:21:13;8.00;99.90
20345;DHT22;10330;48.816;9.278;2023-02-15T17:23:48;8.00;99.90
20345;DHT22;10330;48.816;9.278;2023-02-15T17:26:19;7.90;99.90
20345;DHT22;10330;48.816;9.278;2023-02-15T17:28:49;8.00;99.90
20345;DHT22;10330;48.816;9.278;2023-02-15T17:31:17;8.30;99.90
20345;DHT22;10330;48.816;9.278;2023-02-15T17:33:44;8.40;99.90
20345;DHT22;10330;48.816;9.278;2023-02-15T17:36:18;8.60;99.90
20345;DHT22;10330;48.816;9.278;2023-02-15T17:39:05;8.80;99.90
20345;DHT22;10330;48.816;9.278;2023-02-15T17:41:34;9.00;99.90
20345;DHT22;10330;48.816;9.278;2023-02-15T17:44:02;9.00;99.90
20345;DHT22;10330;48.816;9.278;2023-02-15T17:46:33;9.00;99.90
20345;DHT22;10330;48.816;9.278;2023-02-15T17:49:01;9.00;99.90
20345;DHT22;10330;48.816;9.278;2023-02-15T17:51:27;8.80;99.90
20345;DHT22;10330;48.816;9.278;2023-02-15T17:53:53;8.50;99.90
20345;DHT22;10330;48.816;9.278;2023-02-15T17:56:38;8.20;99.90
20345;DHT22;10330;48.816;9.278;2023-02-15T17:59:05;8.00;99.90
20345;DHT22;10330;48.816;9.278;2023-02-15T18:01:42;7.90;99.90
20345;DHT22;10330;48.816;9.278;2023-02-15T18:04:28;7.70;99.90
20345;DHT22;10330;48.816;9.278;2023-02-15T18:07:14;7.40;99.90
20345;DHT22;10330;48.816;9.278;2023-02-15T18:10:02;7.30;99.90
20345;DHT22;10330;48.816;9.278;2023-02-15T18:12:47;7.20;99.90
20345;DHT22;10330;48.816;9.278;2023-02-15T18:15:13;7.10;99.90
20345;DHT22;10330;48.816;9.278;2023-02-15T18:17:44;7.00;99.90
20345;DHT22;10330;48.816;9.278;2023-02-15T18:20:18;6.90;99.90
20345;DHT22;10330;48.816;9.278;2023-02-15T18:22:48;6.90;99.90
20345;DHT22;10330;48.816;9.278;2023-02-15T18:25:19;6.80;99.90
20345;DHT22;10330;48.816;9.278;2023-02-15T18:27:46;6.70;99.90
20345;DHT22;10330;48.816;9.278;2023-02-15T18:30:17;6.60;99.90
20345;DHT22;10330;48.816;9.278;2023-02-15T18:32:44;6.60;99.90
20345;DHT22;10330;48.816;9.278;2023-02-15T18:35:16;6.50;99.90
20345;DHT22;10330;48.816;9.278;2023-02-15T18:37:42;6.50;99.90
20345;DHT22;10330;48.816;9.278;2023-02-15T18:40:15;6.50;99.90
20345;DHT22;10330;48.816;9.278;2023-02-15T18:42:41;6.30;99.90
20345;DHT22;10330;48.816;9.278;2023-02-15T18:45:25;6.30;99.90
20345;DHT22;10330;48.816;9.278;2023-02-15T18:47:53;6.30;99.90
20345;DHT22;10330;48.816;9.278;2023-02-15T18:50:20;6.20;99.90
20345;DHT22;10330;48.816;9.278;2023-02-15T18:52:48;6.20;99.90
20345;DHT22;10330;48.816;9.278;2023-02-15T18:55:20;6.20;99.90
20345;DHT22;10330;48.816;9.278;2023-02-15T18:57:48;6.10;99.90
20345;DHT22;10330;48.816;9.278;2023-02-15T19:00:16;6.00;99.90
20345;DHT22;10330;48.816;9.278;2023-02-15T19:02:43;6.00;99.90
20345;DHT22;10330;48.816;9.278;2023-02-15T19:05:10;6.00;99.90
20345;DHT22;10330;48.816;9.278;2023-02-15T19:07:38;6.00;99.90
20345;DHT22;10330;48.816;9.278;2023-02-15T19:10:07;6.00;99.90
20345;DHT22;10330;48.816;9.278;2023-02-15T19:12:38;5.90;99.90
20345;DHT22;10330;48.816;9.278;2023-02-15T19:15:05;5.80;99.90
20345;DHT22;10330;48.816;9.278;2023-02-15T19:17:36;5.80;99.90
20345;DHT22;10330;48.816;9.278;2023-02-15T19:20:02;5.70;99.90
20345;DHT22;10330;48.816;9.278;2023-02-15T19:22:30;5.70;99.90
20345;DHT22;10330;48.816;9.278;2023-02-15T19:25:02;5.60;99.90
20345;DHT22;10330;48.816;9.278;2023-02-15T19:27:31;5.50;99.90
20345;DHT22;10330;48.816;9.278;2023-02-15T19:30:02;5.50;99.90
20345;DHT22;10330;48.816;9.278;2023-02-15T19:32:28;5.50;99.90
20345;DHT22;10330;48.816;9.278;2023-02-15T19:34:56;5.40;99.90
20345;DHT22;10330;48.816;9.278;2023-02-15T19:37:38;5.50;99.90
20345;DHT22;10330;48.816;9.278;2023-02-15T19:40:07;5.30;99.90
20345;DHT22;10330;48.816;9.278;2023-02-15T19:42:41;5.40;99.90
20345;DHT22;10330;48.816;9.278;2023-02-15T19:45:22;5.30;99.90
20345;DHT22;10330;48.816;9.278;2023-02-15T19:47:49;5.30;99.90
20345;DHT22;10330;48.816;9.278;2023-02-15T19:50:19;5.20;99.90
20345;DHT22;10330;48.816;9.278;2023-02-15T19:52:45;5.20;99.90
20345;DHT22;10330;48.816;9.278;2023-02-15T19:55:22;5.30;99.90
20345;DHT22;10330;48.816;9.278;2023-02-15T19:57:49;5.10;99.90
20345;DHT22;10330;48.816;9.278;2023-02-15T20:00:34;5.10;99.90
20345;DHT22;10330;48.816;9.278;2023-02-15T20:03:22;5.00;99.90
20345;DHT22;10330;48.816;9.278;2023-02-15T20:05:54;5.00;99.90
20345;DHT22;10330;48.816;9.278;2023-02-15T20:08:21;5.00;99.90
20345;DHT22;10330;48.816;9.278;2023-02-15T20:10:51;4.90;99.90
20345;DHT22;10330;48.816;9.278;2023-02-15T20:13:21;4.90;99.90
20345;DHT22;10330;48.816;9.278;2023-02-15T20:15:48;4.80;99.90
20345;DHT22;10330;48.816;9.278;2023-02-15T20:18:30;4.80;99.90
20345;DHT22;10330;48.816;9.278;2023-02-15T20:21:00;4.80;99.90
20345;DHT22;10330;48.816;9.278;2023-02-15T20:23:54;4.90;99.90
20345;DHT22;10330;48.816;9.278;2023-02-15T20:28:52;4.80;99.90
20345;DHT22;10330;48.816;9.278;2023-02-15T20:31:18;4.70;99.90
20345;DHT22;10330;48.816;9.278;2023-02-15T20:33:48;4.60;99.90
20345;DHT22;10330;48.816;9.278;2023-02-15T20:36:19;4.60;99.90
20345;DHT22;10330;48.816;9.278;2023-02-15T20:38:50;4.60;99.90
20345;DHT22;10330;48.816;9.278;2023-02-15T20:47:22;4.50;99.90
20345;DHT22;10330;48.816;9.278;2023-02-15T20:49:50;4.50;99.90
20345;DHT22;10330;48.816;9.278;2023-02-15T20:52:20;4.50;99.90
20345;DHT22;10330;48.816;9.278;2023-02-15T20:54:50;4.50;99.90
20345;DHT22;10330;48.816;9.278;2023-02-15T20:57:17;4.40;99.90
20345;DHT22;10330;48.816;9.278;2023-02-15T20:59:44;4.40;99.90
20345;DHT22;10330;48.816;9.278;2023-02-15T21:02:48;4.40;99.90
20345;DHT22;10330;48.816;9.278;2023-02-15T21:05:20;4.40;99.90
20345;DHT22;10330;48.816;9.278;2023-02-15T21:07:57;4.30;99.90
20345;DHT22;10330;48.816;9.278;2023-02-15T21:17:13;4.30;99.90
20345;DHT22;10330;48.816;9.278;2023-02-15T21:19:40;4.30;99.90
20345;DHT22;10330;48.816;9.278;2023-02-15T21:22:27;4.30;99.90
20345;DHT22;10330;48.816;9.278;2023-02-15T21:24:56;4.10;99.90
20345;DHT22;10330;48.816;9.278;2023-02-15T21:27:22;4.10;99.90
20345;DHT22;10330;48.816;9.278;2023-02-15T21:30:14;4.00;99.90
20345;DHT22;10330;48.816;9.278;2023-02-15T21:32:41;3.90;99.90
20345;DHT22;10330;48.816;9.278;2023-02-15T21:35:14;4.00;99.90
20345;DHT22;10330;48.816;9.278;2023-02-15T21:37:41;4.00;99.90
20345;DHT22;10330;48.816;9.278;2023-02-15T21:40:18;4.00;99.90
20345;DHT22;10330;48.816;9.278;2023-02-15T21:42:45;4.00;99.90
20345;DHT22;10330;48.816;9.278;2023-02-15T21:45:30;4.00;99.90
20345;DHT22;10330;48.816;9.278;2023-02-15T21:48:15;4.00;99.90
20345;DHT22;10330;48.816;9.278;2023-02-15T21:50:41;4.00;99.90
20345;DHT22;10330;48.816;9.278;2023-02-15T21:53:32;4.00;99.90
20345;DHT22;10330;48.816;9.278;2023-02-15T21:56:01;4.00;99.90
20345;DHT22;10330;48.816;9.278;2023-02-15T21:58:30;3.90;99.90
20345;DHT22;10330;48.816;9.278;2023-02-15T22:00:57;3.90;99.90
20345;DHT22;10330;48.816;9.278;2023-02-15T22:03:29;3.90;99.90
20345;DHT22;10330;48.816;9.278;2023-02-15T22:05:55;3.80;99.90
20345;DHT22;10330;48.816;9.278;2023-02-15T22:08:22;3.70;99.90
20345;DHT22;10330;48.816;9.278;2023-02-15T22:10:48;3.80;99.90
20345;DHT22;10330;48.816;9.278;2023-02-15T22:13:23;3.70;99.90
20345;DHT22;10330;48.816;9.278;2023-02-15T22:15:50;3.70;99.90
20345;DHT22;10330;48.816;9.278;2023-02-15T22:18:27;3.60;99.90
20345;DHT22;10330;48.816;9.278;2023-02-15T22:20:54;3.50;99.90
20345;DHT22;10330;48.816;9.278;2023-02-15T22:23:22;3.40;99.90
20345;DHT22;10330;48.816;9.278;2023-02-15T22:25:55;3.40;99.90
20345;DHT22;10330;48.816;9.278;2023-02-15T22:28:30;3.20;99.90
20345;DHT22;10330;48.816;9.278;2023-02-15T22:30:56;3.20;99.90
20345;DHT22;10330;48.816;9.278;2023-02-15T22:33:26;3.20;99.90
20345;DHT22;10330;48.816;9.278;2023-02-15T22:35:53;3.10;99.90
20345;DHT22;10330;48.816;9.278;2023-02-15T22:38:20;3.00;99.90
20345;DHT22;10330;48.816;9.278;2023-02-15T22:40:48;3.10;99.90
20345;DHT22;10330;48.816;9.278;2023-02-15T22:43:33;3.10;99.90
20345;DHT22;10330;48.816;9.278;2023-02-15T22:46:02;3.00;99.90
20345;DHT22;10330;48.816;9.278;2023-02-15T22:48:29;3.00;99.90
20345;DHT22;10330;48.816;9.278;2023-02-15T22:50:55;3.00;99.90
20345;DHT22;10330;48.816;9.278;2023-02-15T22:53:22;3.00;99.90
20345;DHT22;10330;48.816;9.278;2023-02-15T22:55:48;3.10;99.90
20345;DHT22;10330;48.816;9.278;2023-02-15T22:58:23;3.10;99.90
20345;DHT22;10330;48.816;9.278;2023-02-15T23:00:49;3.10;99.90
20345;DHT22;10330;48.816;9.278;2023-02-15T23:03:19;3.10;99.90
20345;DHT22;10330;48.816;9.278;2023-02-15T23:05:46;3.10;99.90
20345;DHT22;10330;48.816;9.278;2023-02-15T23:08:12;3.00;99.90
20345;DHT22;10330;48.816;9.278;2023-02-15T23:10:40;3.00;99.90
20345;DHT22;10330;48.816;9.278;2023-02-15T23:13:25;3.00;99.90
20345;DHT22;10330;48.816;9.278;2023-02-15T23:16:03;3.00;99.90
20345;DHT22;10330;48.816;9.278;2023-02-15T23:18:39;2.90;99.90
20345;DHT22;10330;48.816;9.278;2023-02-15T23:21:19;2.90;99.90
20345;DHT22;10330;48.816;9.278;2023-02-15T23:23:50;2.90;99.90
20345;DHT22;10330;48.816;9.278;2023-02-15T23:26:21;3.00;99.90
20345;DHT22;10330;48.816;9.278;2023-02-15T23:28:49;2.80;99.90
20345;DHT22;10330;48.816;9.278;2023-02-15T23:31:33;2.80;99.90
20345;DHT22;10330;48.816;9.278;2023-02-15T23:34:01;2.70;99.90
20345;DHT22;10330;48.816;9.278;2023-02-15T23:36:30;2.70;99.90
20345;DHT22;10330;48.816;9.278;2023-02-15T23:38:59;2.70;99.90
20345;DHT22;10330;48.816;9.278;2023-02-15T23:41:45;2.70;99.90
20345;DHT22;10330;48.816;9.278;2023-02-15T23:44:15;2.60;99.90
20345;DHT22;10330;48.816;9.278;2023-02-15T23:46:45;2.60;99.90
20345;DHT22;10330;48.816;9.278;2023-02-15T23:49:13;2.60;99.90
20345;DHT22;10330;48.816;9.278;2023-02-15T23:51:42;2.60;99.90
20345;DHT22;10330;48.816;9.278;2023-02-15T23:54:10;2.60;99.90
20345;DHT22;10330;48.816;9.278;2023-02-15T23:56:38;2.60;99.90
20345;DHT22;10330;48.816;9.278;2023-02-15T23:59:04;2.60;99.90
